createdAt,value
2018-08-06T00:00:02.260Z,1.52
2018-08-06T00:02:35.630Z,1.17
2018-08-06T00:05:08.940Z,1.20
2018-08-06T00:07:42.319Z,1.32
2018-08-06T00:10:19.197Z,1.40
2018-08-06T00:12:52.632Z,1.60
2018-08-06T00:15:26.018Z,1.50
2018-08-06T00:17:59.385Z,1.30
2018-08-06T00:20:32.697Z,1.60
2018-08-06T00:23:06.160Z,1.55
2018-08-06T00:25:39.492Z,1.30
2018-08-06T00:28:12.800Z,1.45
2018-08-06T00:30:46.112Z,1.30
2018-08-06T00:33:19.464Z,1.80
2018-08-06T00:35:52.761Z,1.37
2018-08-06T00:38:26.104Z,1.37
2018-08-06T00:40:59.398Z,1.50
2018-08-06T00:43:32.733Z,1.45
2018-08-06T00:46:06.249Z,1.80
2018-08-06T00:48:39.645Z,1.62
2018-08-06T00:51:12.981Z,1.60
2018-08-06T00:53:46.315Z,1.52
2018-08-06T00:56:19.677Z,1.50
2018-08-06T00:58:53.036Z,1.40
2018-08-06T01:01:26.356Z,1.50
2018-08-06T01:03:59.698Z,1.52
2018-08-06T01:06:33.013Z,1.50
2018-08-06T01:09:08.513Z,1.32
2018-08-06T01:11:41.824Z,1.60
2018-08-06T01:14:15.141Z,1.70
2018-08-06T01:16:48.429Z,1.55
2018-08-06T01:19:21.745Z,1.30
2018-08-06T01:21:55.082Z,1.62
2018-08-06T01:24:28.440Z,1.70
2018-08-06T01:27:01.890Z,1.57
2018-08-06T01:29:35.206Z,1.62
2018-08-06T01:32:08.637Z,1.50
2018-08-06T01:34:41.956Z,1.70
2018-08-06T01:37:15.324Z,1.30
2018-08-06T01:39:48.624Z,1.42
2018-08-06T01:42:21.909Z,1.60
2018-08-06T01:44:55.257Z,1.47
2018-08-06T01:47:28.646Z,1.60
2018-08-06T01:50:01.999Z,1.70
2018-08-06T01:52:35.362Z,1.30
2018-08-06T01:55:08.676Z,1.45
2018-08-06T01:57:42.132Z,1.42
2018-08-06T02:00:16.621Z,1.55
2018-08-06T02:02:49.978Z,1.85
2018-08-06T02:05:23.309Z,1.60
2018-08-06T02:07:56.661Z,1.60
2018-08-06T02:10:36.940Z,1.87
2018-08-06T02:13:10.310Z,1.55
2018-08-06T02:15:43.633Z,1.70
2018-08-06T02:18:16.977Z,1.70
2018-08-06T02:20:50.332Z,1.30
2018-08-06T02:23:23.713Z,1.52
2018-08-06T02:25:57.080Z,1.30
2018-08-06T02:28:30.433Z,1.75
2018-08-06T02:31:03.803Z,1.75
2018-08-06T02:33:37.591Z,1.82
2018-08-06T02:36:10.975Z,1.82
2018-08-06T02:38:44.429Z,1.87
2018-08-06T02:41:17.765Z,2.05
2018-08-06T02:43:51.077Z,1.82
2018-08-06T02:46:24.397Z,1.90
2018-08-06T02:48:57.776Z,2.00
2018-08-06T02:51:31.100Z,1.62
2018-08-06T02:54:04.493Z,1.75
2018-08-06T02:56:37.865Z,1.57
2018-08-06T02:59:11.205Z,2.22
2018-08-06T03:01:44.509Z,1.67
2018-08-06T03:04:17.841Z,2.10
2018-08-06T03:06:51.165Z,2.05
2018-08-06T03:09:24.493Z,1.95
2018-08-06T03:11:57.842Z,2.17
2018-08-06T03:14:31.164Z,1.90
2018-08-06T03:17:04.519Z,1.85
2018-08-06T03:19:37.846Z,1.70
2018-08-06T03:22:11.170Z,2.00
2018-08-06T03:24:44.481Z,1.98
2018-08-06T03:27:17.977Z,2.17
2018-08-06T03:29:51.326Z,2.20
2018-08-06T03:32:24.634Z,2.10
2018-08-06T03:34:57.991Z,1.72
2018-08-06T03:37:31.301Z,1.60
2018-08-06T03:40:05.153Z,2.08
2018-08-06T03:42:38.456Z,2.10
2018-08-06T03:45:18.324Z,1.70
2018-08-06T03:47:51.629Z,1.80
2018-08-06T03:50:24.924Z,2.00
2018-08-06T03:52:58.246Z,1.90
2018-08-06T03:55:31.669Z,1.95
2018-08-06T03:58:05.069Z,1.70
2018-08-06T04:00:38.408Z,2.05
2018-08-06T04:03:11.723Z,2.00
2018-08-06T04:05:45.045Z,2.35
2018-08-06T04:08:18.332Z,2.30
2018-08-06T04:10:51.671Z,2.47
2018-08-06T04:13:25.044Z,1.98
2018-08-06T04:15:58.327Z,2.00
2018-08-06T04:18:31.668Z,2.00
2018-08-06T04:21:05.005Z,1.90
2018-08-06T04:23:38.332Z,2.08
2018-08-06T04:26:11.650Z,1.72
2018-08-06T04:28:44.948Z,2.08
2018-08-06T04:31:18.249Z,1.50
2018-08-06T04:33:51.573Z,1.67
2018-08-06T04:36:25.082Z,1.90
2018-08-06T04:38:58.425Z,1.70
2018-08-06T04:41:31.728Z,1.80
2018-08-06T04:44:05.068Z,1.92
2018-08-06T04:46:38.412Z,1.95
2018-08-06T04:49:11.713Z,1.98
2018-08-06T04:51:45.058Z,1.82
2018-08-06T04:54:18.360Z,1.50
2018-08-06T04:56:51.693Z,1.82
2018-08-06T04:59:25.025Z,1.60
2018-08-06T05:01:58.365Z,1.55
2018-08-06T05:04:31.670Z,1.75
2018-08-06T05:07:05.230Z,1.50
2018-08-06T05:09:39.178Z,1.75
2018-08-06T05:12:12.535Z,1.80
2018-08-06T05:14:45.836Z,1.90
2018-08-06T05:17:19.157Z,1.40
2018-08-06T05:19:52.493Z,1.70
2018-08-06T05:22:25.817Z,1.70
2018-08-06T05:24:59.137Z,1.67
2018-08-06T05:27:32.444Z,1.90
2018-08-06T05:30:07.786Z,1.85
2018-08-06T05:32:41.113Z,1.80
2018-08-06T05:35:14.487Z,1.90
2018-08-06T05:37:47.792Z,1.90
2018-08-06T05:40:21.138Z,1.82
2018-08-06T05:42:54.485Z,2.30
2018-08-06T05:45:27.833Z,2.27
2018-08-06T05:48:01.110Z,2.37
2018-08-06T05:50:34.439Z,2.70
2018-08-06T05:53:07.786Z,3.10
2018-08-06T05:55:41.098Z,3.70
2018-08-06T05:58:14.454Z,3.60
2018-08-06T06:00:48.062Z,4.17
2018-08-06T06:03:21.388Z,3.92
2018-08-06T06:05:54.748Z,3.60
2018-08-06T06:08:28.051Z,3.70
2018-08-06T06:11:01.360Z,3.67
2018-08-06T06:13:35.006Z,3.60
2018-08-06T06:16:08.845Z,3.27
2018-08-06T06:18:42.226Z,3.60
2018-08-06T06:21:15.557Z,2.80
2018-08-06T06:23:48.853Z,3.20
2018-08-06T06:26:22.189Z,2.98
2018-08-06T06:28:55.509Z,2.90
2018-08-06T06:31:28.850Z,2.70
2018-08-06T06:34:02.189Z,2.87
2018-08-06T06:36:35.520Z,3.00
2018-08-06T06:39:10.465Z,2.50
2018-08-06T06:41:44.674Z,2.30
2018-08-06T06:44:17.988Z,2.65
2018-08-06T06:46:51.325Z,2.52
2018-08-06T06:49:24.637Z,2.83
2018-08-06T06:51:57.973Z,2.87
2018-08-06T06:54:31.330Z,2.80
2018-08-06T06:57:04.678Z,2.65
2018-08-06T06:59:38.005Z,2.85
2018-08-06T07:02:11.542Z,3.00
2018-08-06T07:04:44.890Z,2.40
2018-08-06T07:07:18.229Z,2.20
2018-08-06T07:09:51.557Z,2.90
2018-08-06T07:12:24.893Z,2.45
2018-08-06T07:14:58.210Z,2.67
2018-08-06T07:17:31.578Z,2.55
2018-08-06T07:20:05.829Z,2.33
2018-08-06T07:22:39.189Z,2.10
2018-08-06T07:25:12.897Z,2.58
2018-08-06T07:27:46.276Z,2.00
2018-08-06T07:30:19.612Z,2.62
2018-08-06T07:32:52.949Z,2.37
2018-08-06T07:35:26.296Z,2.33
2018-08-06T07:37:59.640Z,2.00
2018-08-06T07:40:33.025Z,2.40
2018-08-06T07:43:06.456Z,2.25
2018-08-06T07:45:39.789Z,2.30
2018-08-06T07:48:13.179Z,2.42
2018-08-06T07:50:46.513Z,2.30
2018-08-06T07:53:19.857Z,2.30
2018-08-06T07:55:53.177Z,2.00
2018-08-06T07:58:26.549Z,1.95
2018-08-06T08:00:59.890Z,2.70
2018-08-06T08:03:33.261Z,1.98
2018-08-06T08:06:07.360Z,2.20
2018-08-06T08:08:40.716Z,1.87
2018-08-06T08:11:14.038Z,2.05
2018-08-06T08:13:47.381Z,2.05
2018-08-06T08:16:20.729Z,2.20
2018-08-06T08:18:54.091Z,2.35
2018-08-06T08:21:27.482Z,2.12
2018-08-06T08:24:01.198Z,2.35
2018-08-06T08:26:34.592Z,2.20
2018-08-06T08:29:07.929Z,2.35
2018-08-06T08:31:41.254Z,2.45
2018-08-06T08:34:14.580Z,2.55
2018-08-06T08:36:47.929Z,2.37
2018-08-06T08:39:21.272Z,2.45
2018-08-06T08:41:54.843Z,2.50
2018-08-06T08:44:28.185Z,2.12
2018-08-06T08:47:01.533Z,2.30
2018-08-06T08:49:34.909Z,2.15
2018-08-06T08:52:08.224Z,2.10
2018-08-06T08:54:41.564Z,2.22
2018-08-06T08:57:14.966Z,2.20
2018-08-06T08:59:48.306Z,2.15
2018-08-06T09:02:21.646Z,2.25
2018-08-06T09:04:54.968Z,2.52
2018-08-06T09:07:28.365Z,2.10
2018-08-06T09:10:01.789Z,2.10
2018-08-06T09:12:35.111Z,2.40
2018-08-06T09:15:11.185Z,2.20
2018-08-06T09:17:44.725Z,2.45
2018-08-06T09:20:18.416Z,2.30
2018-08-06T09:22:51.781Z,2.58
2018-08-06T09:25:25.166Z,2.55
2018-08-06T09:27:58.549Z,2.30
2018-08-06T09:30:31.870Z,2.47
2018-08-06T09:33:05.228Z,1.92
2018-08-06T09:35:38.565Z,2.25
2018-08-06T09:38:11.998Z,2.00
2018-08-06T09:40:45.306Z,2.30
2018-08-06T09:43:18.728Z,2.50
2018-08-06T09:45:52.074Z,2.27
2018-08-06T09:48:25.498Z,2.10
2018-08-06T09:50:58.812Z,2.00
2018-08-06T09:53:32.201Z,2.50
2018-08-06T09:56:05.606Z,2.05
2018-08-06T09:58:38.980Z,2.15
2018-08-06T10:01:17.441Z,1.90
2018-08-06T10:03:50.830Z,1.80
2018-08-06T10:06:24.297Z,2.30
2018-08-06T10:08:57.688Z,1.70
2018-08-06T10:11:30.997Z,1.98
2018-08-06T10:14:04.417Z,2.00
2018-08-06T10:16:37.808Z,1.92
2018-08-06T10:19:11.244Z,1.72
2018-08-06T10:21:44.544Z,1.90
2018-08-06T10:24:18.056Z,2.00
2018-08-06T10:26:51.336Z,1.72
2018-08-06T10:29:24.688Z,1.65
2018-08-06T10:31:58.115Z,1.80
2018-08-06T10:34:31.445Z,2.02
2018-08-06T10:37:05.158Z,1.77
2018-08-06T10:39:38.524Z,1.85
2018-08-06T10:42:11.848Z,1.90
2018-08-06T10:44:46.004Z,2.20
2018-08-06T10:47:19.493Z,1.70
2018-08-06T10:49:52.834Z,2.00
2018-08-06T10:52:26.254Z,2.05
2018-08-06T10:54:59.626Z,2.30
2018-08-06T10:57:32.980Z,2.20
2018-08-06T11:00:10.328Z,2.00
2018-08-06T11:02:43.753Z,2.00
2018-08-06T11:05:17.653Z,2.05
2018-08-06T11:07:51.082Z,1.60
2018-08-06T11:10:24.877Z,1.67
2018-08-06T11:12:58.965Z,2.00
2018-08-06T11:15:32.295Z,1.77
2018-08-06T11:18:05.729Z,1.98
2018-08-06T11:20:39.049Z,1.72
2018-08-06T11:23:12.433Z,1.87
2018-08-06T11:25:45.749Z,2.00
2018-08-06T11:28:19.078Z,2.05
2018-08-06T11:30:52.396Z,1.65
2018-08-06T11:33:25.744Z,1.82
2018-08-06T11:35:59.433Z,1.70
2018-08-06T11:41:11.444Z,1.70
2018-08-06T11:43:45.054Z,1.90
2018-08-06T11:46:18.368Z,1.60
2018-08-06T11:48:51.685Z,1.90
2018-08-06T11:51:25.001Z,1.65
2018-08-06T11:53:58.292Z,1.57
2018-08-06T11:56:31.670Z,2.00
2018-08-06T11:59:05.020Z,1.80
2018-08-06T12:01:38.357Z,1.90
2018-08-06T12:04:11.683Z,1.67
2018-08-06T12:06:45.030Z,1.77
2018-08-06T12:09:18.451Z,1.60
2018-08-06T12:11:51.776Z,1.57
2018-08-06T12:14:25.080Z,1.75
2018-08-06T12:16:58.444Z,1.77
2018-08-06T12:19:31.765Z,1.47
2018-08-06T12:22:05.173Z,1.70
2018-08-06T12:24:38.498Z,1.75
2018-08-06T12:27:11.885Z,1.42
2018-08-06T12:29:45.188Z,1.57
2018-08-06T12:32:18.573Z,1.80
2018-08-06T12:34:51.957Z,1.50
2018-08-06T12:37:25.301Z,1.70
2018-08-06T12:39:58.651Z,1.92
2018-08-06T12:42:31.963Z,1.98
2018-08-06T12:45:06.677Z,1.40
2018-08-06T12:47:40.457Z,1.70
2018-08-06T12:50:14.915Z,1.70
2018-08-06T12:52:48.261Z,1.90
2018-08-06T12:55:21.673Z,1.80
2018-08-06T12:57:54.988Z,1.62
2018-08-06T13:00:28.440Z,1.72
2018-08-06T13:03:01.881Z,1.95
2018-08-06T13:05:35.569Z,2.00
2018-08-06T13:08:08.915Z,1.70
2018-08-06T13:10:42.255Z,1.85
2018-08-06T13:13:15.624Z,1.50
2018-08-06T13:15:48.991Z,2.20
2018-08-06T13:18:22.321Z,1.60
2018-08-06T13:20:55.636Z,2.05
2018-08-06T13:23:29.001Z,1.57
2018-08-06T13:26:02.362Z,2.00
2018-08-06T13:28:35.761Z,1.62
2018-08-06T13:31:09.271Z,1.75
2018-08-06T13:33:42.688Z,1.95
2018-08-06T13:36:16.098Z,1.52
2018-08-06T13:38:49.441Z,1.60
2018-08-06T13:41:22.760Z,1.70
2018-08-06T13:43:56.093Z,1.82
2018-08-06T13:46:29.439Z,1.40
2018-08-06T13:49:02.828Z,1.25
2018-08-06T13:51:36.343Z,1.60
2018-08-06T13:54:10.197Z,1.52
2018-08-06T13:56:43.667Z,1.30
2018-08-06T13:59:17.215Z,1.42
2018-08-06T14:01:50.414Z,1.80
2018-08-06T14:04:23.740Z,1.37
2018-08-06T14:06:57.061Z,1.75
2018-08-06T14:09:30.405Z,1.47
2018-08-06T14:12:03.750Z,1.50
2018-08-06T14:14:37.220Z,1.62
2018-08-06T14:17:10.656Z,1.90
2018-08-06T14:19:44.032Z,1.40
2018-08-06T14:22:17.324Z,1.35
2018-08-06T14:24:50.631Z,1.40
2018-08-06T14:27:23.961Z,1.60
2018-08-06T14:29:57.308Z,1.50
2018-08-06T14:32:30.657Z,1.50
2018-08-06T14:35:04.375Z,1.82
2018-08-06T14:37:37.791Z,1.55
2018-08-06T14:40:13.808Z,1.42
2018-08-06T14:42:47.563Z,1.70
2018-08-06T14:45:20.875Z,1.60
2018-08-06T14:47:54.186Z,1.80
2018-08-06T14:50:27.488Z,1.70
2018-08-06T14:53:00.806Z,1.40
2018-08-06T14:55:34.097Z,1.35
2018-08-06T14:58:07.463Z,1.80
2018-08-06T15:00:40.808Z,1.57
2018-08-06T15:03:14.138Z,1.67
2018-08-06T15:05:47.459Z,1.50
2018-08-06T15:08:20.796Z,1.60
2018-08-06T15:10:54.162Z,1.45
2018-08-06T15:13:27.449Z,1.50
2018-08-06T15:16:00.765Z,1.50
2018-08-06T15:18:34.096Z,1.60
2018-08-06T15:21:07.655Z,1.40
2018-08-06T15:23:41.093Z,1.32
2018-08-06T15:26:14.400Z,1.30
2018-08-06T15:28:47.732Z,1.50
2018-08-06T15:31:21.057Z,1.55
2018-08-06T15:33:54.407Z,1.32
2018-08-06T15:36:27.990Z,1.25
2018-08-06T15:39:01.329Z,1.30
2018-08-06T15:41:34.642Z,1.30
2018-08-06T15:44:08.014Z,1.37
2018-08-06T15:46:41.336Z,1.60
2018-08-06T15:49:14.676Z,1.20
2018-08-06T15:51:47.976Z,1.70
2018-08-06T15:54:21.310Z,1.70
2018-08-06T15:56:54.654Z,1.52
2018-08-06T15:59:28.076Z,1.40
2018-08-06T16:02:01.381Z,1.22
2018-08-06T16:04:34.693Z,1.60
2018-08-06T16:07:08.057Z,1.22
2018-08-06T16:09:41.376Z,1.75
2018-08-06T16:12:14.663Z,1.20
2018-08-06T16:14:47.980Z,1.22
2018-08-06T16:17:21.297Z,1.50
2018-08-06T16:19:54.664Z,1.50
2018-08-06T16:22:27.988Z,1.50
2018-08-06T16:25:01.451Z,1.30
2018-08-06T16:27:35.065Z,1.50
2018-08-06T16:30:19.934Z,1.50
2018-08-06T16:32:53.609Z,1.17
2018-08-06T16:35:26.926Z,1.72
2018-08-06T16:39:29.504Z,1.42
2018-08-06T16:42:03.137Z,1.50
2018-08-06T16:44:36.917Z,1.30
2018-08-06T16:47:10.264Z,1.42
2018-08-06T16:49:43.664Z,1.50
2018-08-06T16:52:17.004Z,1.42
2018-08-06T16:54:50.384Z,1.20
2018-08-06T16:57:23.710Z,1.37
2018-08-06T16:59:57.044Z,1.40
2018-08-06T17:02:30.362Z,1.42
2018-08-06T17:05:03.737Z,1.42
2018-08-06T17:07:37.138Z,1.07
2018-08-06T17:10:12.979Z,1.50
2018-08-06T17:12:47.441Z,1.27
2018-08-06T17:15:21.736Z,1.47
2018-08-06T17:17:56.015Z,1.40
2018-08-06T17:20:29.357Z,1.30
2018-08-06T17:23:02.660Z,1.45
2018-08-06T17:25:35.982Z,1.20
2018-08-06T17:28:09.332Z,1.47
2018-08-06T17:30:42.676Z,1.40
2018-08-06T17:33:16.006Z,1.65
2018-08-06T17:35:49.336Z,1.30
2018-08-06T17:38:22.705Z,1.42
2018-08-06T17:40:56.030Z,1.60
2018-08-06T17:43:29.345Z,1.60
2018-08-06T17:46:02.705Z,1.60
2018-08-06T17:48:36.057Z,2.30
2018-08-06T17:51:09.393Z,1.60
2018-08-06T17:53:42.741Z,1.65
2018-08-06T17:56:16.539Z,1.55
2018-08-06T17:58:49.935Z,1.50
2018-08-06T18:01:23.805Z,1.20
2018-08-06T18:03:57.552Z,1.52
2018-08-06T18:06:30.888Z,1.50
2018-08-06T18:09:05.940Z,1.32
2018-08-06T18:11:39.275Z,1.45
2018-08-06T18:14:12.625Z,1.80
2018-08-06T18:16:46.413Z,1.35
2018-08-06T18:19:19.809Z,1.50
2018-08-06T18:21:53.173Z,1.60
2018-08-06T18:24:26.656Z,1.57
2018-08-06T18:26:59.979Z,1.55
2018-08-06T18:29:34.356Z,1.50
2018-08-06T18:32:07.684Z,1.40
2018-08-06T18:34:41.597Z,1.62
2018-08-06T18:37:15.022Z,1.80
2018-08-06T18:39:49.592Z,1.80
2018-08-06T18:42:23.048Z,1.47
2018-08-06T18:44:56.432Z,1.60
2018-08-06T18:47:29.773Z,1.40
2018-08-06T18:50:03.205Z,1.50
2018-08-06T18:52:36.557Z,1.10
2018-08-06T18:55:12.586Z,1.60
2018-08-06T18:57:47.460Z,1.60
2018-08-06T19:00:22.672Z,1.50
2018-08-06T19:02:55.981Z,1.62
2018-08-06T19:05:29.521Z,1.40
2018-08-06T19:08:03.028Z,1.42
2018-08-06T19:10:36.756Z,1.50
2018-08-06T19:13:15.318Z,1.40
2018-08-06T19:15:48.653Z,1.50
2018-08-06T19:18:27.253Z,1.40
2018-08-06T19:21:00.607Z,1.65
2018-08-06T19:23:33.937Z,1.22
2018-08-06T19:26:14.720Z,1.60
2018-08-06T19:28:48.121Z,1.50
2018-08-06T19:31:27.674Z,1.70
2018-08-06T19:34:00.969Z,1.52
2018-08-06T19:36:39.618Z,1.52
2018-08-06T19:39:12.970Z,1.55
2018-08-06T19:41:46.381Z,1.75
2018-08-06T19:44:19.736Z,1.47
2018-08-06T19:46:53.079Z,1.52
2018-08-06T19:49:31.720Z,1.65
2018-08-06T19:52:05.113Z,1.80
2018-08-06T19:54:38.440Z,1.70
2018-08-06T19:57:12.371Z,1.42
2018-08-06T19:59:45.709Z,1.62
2018-08-06T20:02:19.059Z,1.75
2018-08-06T20:04:52.870Z,1.72
2018-08-06T20:07:26.317Z,1.62
2018-08-06T20:10:00.405Z,1.70
2018-08-06T20:12:33.737Z,1.42
2018-08-06T20:15:10.635Z,1.70
2018-08-06T20:17:43.968Z,1.82
2018-08-06T20:20:17.320Z,2.02
2018-08-06T20:22:50.617Z,1.80
2018-08-06T20:25:23.937Z,2.25
2018-08-06T20:27:57.257Z,1.72
2018-08-06T20:30:30.582Z,2.00
2018-08-06T20:33:04.399Z,1.90
2018-08-06T20:35:37.698Z,2.25
2018-08-06T20:38:11.025Z,2.20
2018-08-06T20:40:44.379Z,2.10
2018-08-06T20:43:17.701Z,2.52
2018-08-06T20:45:50.988Z,2.40
2018-08-06T20:48:24.333Z,2.17
2018-08-06T20:50:57.675Z,2.05
2018-08-06T20:53:31.085Z,2.20
2018-08-06T20:56:04.511Z,2.05
2018-08-06T20:58:37.877Z,2.00
2018-08-06T21:01:11.169Z,2.30
2018-08-06T21:03:44.524Z,1.77
2018-08-06T21:06:17.830Z,1.90
2018-08-06T21:08:51.189Z,1.90
2018-08-06T21:11:24.513Z,2.27
2018-08-06T21:13:57.879Z,2.00
2018-08-06T21:16:31.210Z,1.92
2018-08-06T21:19:04.634Z,1.95
2018-08-06T21:21:38.021Z,1.82
2018-08-06T21:24:11.367Z,2.00
2018-08-06T21:26:44.718Z,1.80
2018-08-06T21:29:18.069Z,1.70
2018-08-06T21:31:51.410Z,2.08
2018-08-06T21:34:24.772Z,1.75
2018-08-06T21:36:58.100Z,1.72
2018-08-06T21:39:31.471Z,1.62
2018-08-06T21:42:04.826Z,1.92
2018-08-06T21:44:38.164Z,1.87
2018-08-06T21:47:11.647Z,1.95
2018-08-06T21:49:45.006Z,2.08
2018-08-06T21:52:18.399Z,1.92
2018-08-06T21:54:51.702Z,2.02
2018-08-06T21:57:25.160Z,1.80
2018-08-06T21:59:58.565Z,1.92
2018-08-06T22:02:31.963Z,1.75
2018-08-06T22:05:06.797Z,2.05
2018-08-06T22:07:40.133Z,1.80
2018-08-06T22:10:13.500Z,1.70
2018-08-06T22:12:46.872Z,1.85
2018-08-06T22:15:20.352Z,1.85
2018-08-06T22:17:53.796Z,1.85
2018-08-06T22:20:27.107Z,1.90
2018-08-06T22:23:00.441Z,2.02
2018-08-06T22:25:33.785Z,1.75
2018-08-06T22:28:08.673Z,2.10
2018-08-06T22:30:42.018Z,2.30
2018-08-06T22:33:15.411Z,1.75
2018-08-06T22:35:48.749Z,1.90
2018-08-06T22:38:22.073Z,1.95
2018-08-06T22:40:55.397Z,2.00
2018-08-06T22:43:28.719Z,2.05
2018-08-06T22:46:02.049Z,1.80
2018-08-06T22:48:35.509Z,2.10
2018-08-06T22:51:08.942Z,1.72
2018-08-06T22:53:42.357Z,2.00
2018-08-06T22:56:15.657Z,1.95
2018-08-06T22:58:49.013Z,2.00
2018-08-06T23:01:22.350Z,1.90
2018-08-06T23:03:55.738Z,1.85
2018-08-06T23:06:29.130Z,1.90
2018-08-06T23:09:02.508Z,2.12
2018-08-06T23:11:35.873Z,1.90
2018-08-06T23:14:09.484Z,2.40
2018-08-06T23:16:42.809Z,1.85
2018-08-06T23:19:16.131Z,2.08
2018-08-06T23:21:49.446Z,2.02
2018-08-06T23:24:22.785Z,2.00
2018-08-06T23:26:56.093Z,1.92
2018-08-06T23:29:29.509Z,2.20
2018-08-06T23:32:02.808Z,2.00
2018-08-06T23:34:36.152Z,2.40
2018-08-06T23:37:09.476Z,1.80
2018-08-06T23:39:42.875Z,1.72
2018-08-06T23:42:16.225Z,1.85
2018-08-06T23:44:49.556Z,2.02
2018-08-06T23:47:22.903Z,1.95
2018-08-06T23:49:56.262Z,2.10
2018-08-06T23:52:29.593Z,2.00
2018-08-06T23:55:02.985Z,1.72
2018-08-06T23:57:36.500Z,1.92
